Time,TemperatureF,DewpointF,PressureIn,WindDirection,WindDirectionDegrees,WindSpeedMPH,WindSpeedGustMPH,Humidity,HourlyPrecipIn,Conditions,Clouds,dailyrainin,SolarRadiationWatts/m^2,SoftwareType,DateUTC
2013-01-15 00:04:00,33.0,20.0,-100.00,WSW,242,2.0,8.0,59,0.00,,,0.18,0.000000,,2013-01-15 05:04:00,
2013-01-15 00:10:00,32.0,22.0,-100.00,SSW,200,1.0,4.0,67,0.00,,,0.17,0.000000,,2013-01-15 05:10:00,
2013-01-15 00:33:00,32.0,22.0,-100.00,SSW,200,1.0,4.0,67,0.00,,,0.17,0.000000,,2013-01-15 05:33:00,
2013-01-15 00:42:00,32.0,22.0,-100.00,SSW,200,1.0,4.0,67,0.00,,,0.17,0.000000,,2013-01-15 05:42:00,
2013-01-15 00:53:00,32.0,22.0,-100.00,SSW,200,1.0,4.0,67,0.00,,,0.17,0.000000,,2013-01-15 05:53:00,
2013-01-15 01:03:00,32.0,22.0,-100.00,SSW,200,1.0,4.0,67,0.00,,,0.17,0.000000,,2013-01-15 06:03:00,
2013-01-15 01:10:00,31.0,20.0,-100.00,ENE,62,1.0,6.0,62,0.00,,,0.16,0.000000,,2013-01-15 06:10:00,
2013-01-15 01:33:00,31.0,20.0,-100.00,ENE,62,1.0,6.0,62,0.00,,,0.16,0.000000,,2013-01-15 06:33:00,
2013-01-15 01:43:00,31.0,20.0,-100.00,ENE,62,1.0,6.0,62,0.00,,,0.16,0.000000,,2013-01-15 06:43:00,
2013-01-15 01:53:00,31.0,20.0,-100.00,ENE,62,1.0,6.0,62,0.00,,,0.16,0.000000,,2013-01-15 06:53:00,
2013-01-15 02:02:00,31.0,20.0,-100.00,ENE,62,1.0,6.0,62,0.00,,,0.16,0.000000,,2013-01-15 07:02:00,
2013-01-15 02:10:00,32.0,19.0,-100.00,West,276,2.0,5.0,58,0.00,,,0.16,0.000000,,2013-01-15 07:10:00,
2013-01-15 02:33:00,32.0,19.0,-100.00,West,276,2.0,5.0,58,0.00,,,0.16,0.000000,,2013-01-15 07:33:00,
2013-01-15 02:43:00,32.0,19.0,-100.00,West,276,2.0,5.0,58,0.00,,,0.16,0.000000,,2013-01-15 07:43:00,
2013-01-15 02:53:00,32.0,19.0,-100.00,West,276,2.0,5.0,58,0.00,,,0.16,0.000000,,2013-01-15 07:53:00,
2013-01-15 03:02:00,32.0,19.0,-100.00,West,276,2.0,5.0,58,0.00,,,0.16,0.000000,,2013-01-15 08:02:00,
2013-01-15 03:10:00,31.0,21.0,-100.00,WSW,241,2.0,5.0,65,0.00,,,0.15,0.000000,,2013-01-15 08:10:00,
2013-01-15 03:33:00,31.0,21.0,-100.00,WSW,241,2.0,5.0,65,0.00,,,0.15,0.000000,,2013-01-15 08:33:00,
2013-01-15 03:43:00,31.0,21.0,-100.00,WSW,241,2.0,5.0,65,0.00,,,0.15,0.000000,,2013-01-15 08:43:00,
2013-01-15 03:53:00,31.0,21.0,-100.00,WSW,241,2.0,5.0,65,0.00,,,0.15,0.000000,,2013-01-15 08:53:00,
2013-01-15 04:02:00,31.0,21.0,-100.00,WSW,241,2.0,5.0,65,0.00,,,0.15,0.000000,,2013-01-15 09:02:00,
2013-01-15 04:10:00,30.0,22.0,-100.00,East,99,0.0,2.0,73,0.00,,,0.14,0.000000,,2013-01-15 09:10:00,
2013-01-15 04:43:00,30.0,22.0,-100.00,East,99,0.0,2.0,73,0.00,,,0.14,0.000000,,2013-01-15 09:43:00,
2013-01-15 04:52:00,30.0,22.0,-100.00,East,99,0.0,2.0,73,0.00,,,0.14,0.000000,,2013-01-15 09:52:00,
2013-01-15 05:02:00,30.0,22.0,-100.00,East,99,0.0,2.0,73,0.00,,,0.14,0.000000,,2013-01-15 10:02:00,
2013-01-15 05:10:00,31.0,21.0,-100.00,WNW,284,2.0,4.0,65,0.00,,,0.13,0.000000,,2013-01-15 10:10:00,
2013-01-15 05:33:00,31.0,21.0,-100.00,WNW,284,2.0,4.0,65,0.00,,,0.13,0.000000,,2013-01-15 10:33:00,
2013-01-15 05:42:00,31.0,21.0,-100.00,WNW,284,2.0,4.0,65,0.00,,,0.13,0.000000,,2013-01-15 10:42:00,
2013-01-15 05:52:00,31.0,21.0,-100.00,WNW,284,2.0,4.0,65,0.00,,,0.13,0.000000,,2013-01-15 10:52:00,
2013-01-15 06:03:00,31.0,21.0,-100.00,WNW,284,2.0,4.0,65,0.00,,,0.13,0.000000,,2013-01-15 11:03:00,
2013-01-15 06:10:00,30.0,20.0,-100.00,ESE,111,1.0,2.0,65,0.00,,,0.12,0.000000,,2013-01-15 11:10:00,
2013-01-15 06:33:00,30.0,20.0,-100.00,ESE,111,1.0,2.0,65,0.00,,,0.12,0.000000,,2013-01-15 11:33:00,
2013-01-15 06:43:00,30.0,20.0,-100.00,ESE,111,1.0,2.0,65,0.00,,,0.12,0.000000,,2013-01-15 11:43:00,
2013-01-15 06:53:00,30.0,20.0,-100.00,ESE,111,1.0,2.0,65,0.00,,,0.12,0.000000,,2013-01-15 11:53:00,
2013-01-15 07:03:00,30.0,20.0,-100.00,ESE,111,1.0,2.0,65,0.00,,,0.12,0.000000,,2013-01-15 12:03:00,
2013-01-15 07:10:00,30.0,19.0,-100.00,West,266,3.0,6.0,62,0.00,,,0.11,0.000000,,2013-01-15 12:10:00,
2013-01-15 07:33:00,30.0,19.0,-100.00,West,266,3.0,6.0,62,0.00,,,0.11,0.000000,,2013-01-15 12:33:00,
2013-01-15 07:43:00,30.0,19.0,-100.00,West,266,3.0,6.0,62,0.00,,,0.11,0.000000,,2013-01-15 12:43:00,
2013-01-15 07:53:00,30.0,19.0,-100.00,West,266,3.0,6.0,62,0.00,,,0.11,0.000000,,2013-01-15 12:53:00,
2013-01-15 08:03:00,30.0,19.0,-100.00,West,266,3.0,6.0,62,0.00,,,0.11,0.000000,,2013-01-15 13:03:00,
2013-01-15 08:10:00,30.0,19.0,-100.00,West,278,1.0,5.0,62,0.00,,,0.10,5.000000,,2013-01-15 13:10:00,
2013-01-15 08:33:00,30.0,19.0,-100.00,West,278,1.0,5.0,62,0.00,,,0.10,5.000000,,2013-01-15 13:33:00,
2013-01-15 08:43:00,30.0,19.0,-100.00,West,278,1.0,5.0,62,0.00,,,0.10,5.000000,,2013-01-15 13:43:00,
2013-01-15 08:53:00,30.0,19.0,-100.00,West,278,1.0,5.0,62,0.00,,,0.10,5.000000,,2013-01-15 13:53:00,
2013-01-15 09:03:00,30.0,19.0,-100.00,West,278,1.0,5.0,62,0.00,,,0.10,5.000000,,2013-01-15 14:03:00,
2013-01-15 09:10:00,31.0,19.0,-100.00,SW,235,1.0,4.0,60,0.00,,,0.09,29.000000,,2013-01-15 14:10:00,
2013-01-15 09:33:00,31.0,19.0,-100.00,SW,235,1.0,4.0,60,0.00,,,0.09,29.000000,,2013-01-15 14:33:00,
2013-01-15 09:43:00,31.0,19.0,-100.00,SW,235,1.0,4.0,60,0.00,,,0.09,29.000000,,2013-01-15 14:43:00,
2013-01-15 09:54:00,31.0,19.0,-100.00,SW,235,1.0,4.0,60,0.00,,,0.09,29.000000,,2013-01-15 14:54:00,
2013-01-15 10:03:00,31.0,19.0,-100.00,SW,235,1.0,4.0,60,0.00,,,0.09,29.000000,,2013-01-15 15:03:00,
2013-01-15 10:10:00,33.0,19.0,-100.00,WNW,284,2.0,6.0,56,0.00,,,0.08,63.000000,,2013-01-15 15:10:00,
2013-01-15 10:33:00,33.0,19.0,-100.00,WNW,284,2.0,6.0,56,0.00,,,0.08,63.000000,,2013-01-15 15:33:00,
2013-01-15 10:43:00,33.0,19.0,-100.00,WNW,284,2.0,6.0,56,0.00,,,0.08,63.000000,,2013-01-15 15:43:00,
2013-01-15 10:53:00,33.0,19.0,-100.00,WNW,284,2.0,6.0,56,0.00,,,0.08,63.000000,,2013-01-15 15:53:00,
2013-01-15 11:03:00,33.0,19.0,-100.00,WNW,284,2.0,6.0,56,0.00,,,0.08,63.000000,,2013-01-15 16:03:00,
2013-01-15 11:10:00,33.0,19.0,-100.00,West,275,3.0,10.0,55,0.00,,,0.07,103.000000,,2013-01-15 16:10:00,
2013-01-15 11:33:00,33.0,19.0,-100.00,West,275,3.0,10.0,55,0.00,,,0.07,103.000000,,2013-01-15 16:33:00,
2013-01-15 11:43:00,33.0,19.0,-100.00,West,275,3.0,10.0,55,0.00,,,0.07,103.000000,,2013-01-15 16:43:00,
2013-01-15 11:53:00,33.0,19.0,-100.00,West,275,3.0,10.0,55,0.00,,,0.07,103.000000,,2013-01-15 16:53:00,
2013-01-15 12:04:00,33.0,19.0,-100.00,West,275,3.0,10.0,55,0.00,,,0.07,103.000000,,2013-01-15 17:04:00,
2013-01-15 12:10:00,33.0,17.0,-100.00,West,267,5.0,9.0,51,0.00,,,0.03,131.000000,,2013-01-15 17:10:00,
2013-01-15 12:43:00,33.0,17.0,-100.00,West,267,5.0,9.0,51,0.00,,,0.03,131.000000,,2013-01-15 17:43:00,
2013-01-15 12:53:00,33.0,17.0,-100.00,West,267,5.0,9.0,51,0.00,,,0.03,131.000000,,2013-01-15 17:53:00,
2013-01-15 13:03:00,33.0,17.0,-100.00,West,267,5.0,9.0,51,0.00,,,0.03,131.000000,,2013-01-15 18:03:00,
2013-01-15 13:10:00,33.0,17.0,-100.00,West,261,3.0,9.0,52,0.00,,,0.01,109.000000,,2013-01-15 18:10:00,
2013-01-15 13:34:00,33.0,17.0,-100.00,West,261,3.0,9.0,52,0.00,,,0.01,109.000000,,2013-01-15 18:34:00,
2013-01-15 13:43:00,33.0,17.0,-100.00,West,261,3.0,9.0,52,0.00,,,0.01,109.000000,,2013-01-15 18:43:00,
2013-01-15 13:54:00,33.0,17.0,-100.00,West,261,3.0,9.0,52,0.00,,,0.01,109.000000,,2013-01-15 18:54:00,
2013-01-15 14:03:00,33.0,17.0,-100.00,West,261,3.0,9.0,52,0.00,,,0.01,109.000000,,2013-01-15 19:03:00,
2013-01-15 14:10:00,32.0,15.0,-100.00,West,275,3.0,9.0,49,0.00,,,0.00,100.000000,,2013-01-15 19:10:00,
2013-01-15 14:33:00,32.0,15.0,-100.00,West,275,3.0,9.0,49,0.00,,,0.00,100.000000,,2013-01-15 19:33:00,
2013-01-15 14:43:00,32.0,15.0,-100.00,West,275,3.0,9.0,49,0.00,,,0.00,100.000000,,2013-01-15 19:43:00,
2013-01-15 14:53:00,32.0,15.0,-100.00,West,275,3.0,9.0,49,0.00,,,0.00,100.000000,,2013-01-15 19:53:00,
2013-01-15 15:04:00,32.0,15.0,-100.00,West,275,3.0,9.0,49,0.00,,,0.00,100.000000,,2013-01-15 20:04:00,
2013-01-15 15:10:00,31.0,15.0,-100.00,West,264,3.0,10.0,50,0.00,,,0.00,56.000000,,2013-01-15 20:10:00,
2013-01-15 15:33:00,31.0,15.0,-100.00,West,264,3.0,10.0,50,0.00,,,0.00,56.000000,,2013-01-15 20:33:00,
2013-01-15 15:44:00,31.0,15.0,-100.00,West,264,3.0,10.0,50,0.00,,,0.00,56.000000,,2013-01-15 20:44:00,
2013-01-15 15:53:00,31.0,15.0,-100.00,West,264,3.0,10.0,50,0.00,,,0.00,56.000000,,2013-01-15 20:53:00,
2013-01-15 16:03:00,31.0,15.0,-100.00,West,264,3.0,10.0,50,0.00,,,0.00,56.000000,,2013-01-15 21:03:00,
2013-01-15 16:10:00,30.0,15.0,-100.00,West,277,2.0,7.0,54,0.00,,,0.00,18.000000,,2013-01-15 21:10:00,
2013-01-15 16:34:00,30.0,15.0,-100.00,West,277,2.0,7.0,54,0.00,,,0.00,18.000000,,2013-01-15 21:34:00,
2013-01-15 16:43:00,30.0,15.0,-100.00,West,277,2.0,7.0,54,0.00,,,0.00,18.000000,,2013-01-15 21:43:00,
2013-01-15 16:53:00,30.0,15.0,-100.00,West,277,2.0,7.0,54,0.00,,,0.00,18.000000,,2013-01-15 21:53:00,
2013-01-15 17:03:00,30.0,15.0,-100.00,West,277,2.0,7.0,54,0.00,,,0.00,18.000000,,2013-01-15 22:03:00,
2013-01-15 17:10:00,28.0,16.0,-100.00,NE,44,1.0,4.0,60,0.00,,,0.00,3.000000,,2013-01-15 22:10:00,
2013-01-15 17:33:00,28.0,16.0,-100.00,NE,44,1.0,4.0,60,0.00,,,0.00,3.000000,,2013-01-15 22:33:00,
2013-01-15 17:43:00,28.0,16.0,-100.00,NE,44,1.0,4.0,60,0.00,,,0.00,3.000000,,2013-01-15 22:43:00,
2013-01-15 17:53:00,28.0,16.0,-100.00,NE,44,1.0,4.0,60,0.00,,,0.00,3.000000,,2013-01-15 22:53:00,
2013-01-15 18:03:00,28.0,16.0,-100.00,NE,44,1.0,4.0,60,0.00,,,0.00,3.000000,,2013-01-15 23:03:00,
2013-01-15 18:10:00,26.0,17.0,-100.00,SE,137,1.0,3.0,69,0.00,,,0.00,0.000000,,2013-01-15 23:10:00,
2013-01-15 18:43:00,26.0,17.0,-100.00,SE,137,1.0,3.0,69,0.00,,,0.00,0.000000,,2013-01-15 23:43:00,
2013-01-15 18:53:00,26.0,17.0,-100.00,SE,137,1.0,3.0,69,0.00,,,0.00,0.000000,,2013-01-15 23:53:00,
2013-01-15 19:03:00,26.0,17.0,-100.00,SE,137,1.0,3.0,69,0.00,,,0.00,0.000000,,2013-01-16 00:03:00,
2013-01-15 19:10:00,24.0,16.0,-100.00,East,94,1.0,3.0,71,0.00,,,0.00,0.000000,,2013-01-16 00:10:00,
2013-01-15 19:33:00,24.0,16.0,-100.00,East,94,1.0,3.0,71,0.00,,,0.00,0.000000,,2013-01-16 00:33:00,
2013-01-15 19:43:00,24.0,16.0,-100.00,East,94,1.0,3.0,71,0.00,,,0.00,0.000000,,2013-01-16 00:43:00,
2013-01-15 19:53:00,24.0,16.0,-100.00,East,94,1.0,3.0,71,0.00,,,0.00,0.000000,,2013-01-16 00:53:00,
2013-01-15 20:03:00,24.0,16.0,-100.00,East,94,1.0,3.0,71,0.00,,,0.00,0.000000,,2013-01-16 01:03:00,
2013-01-15 20:10:00,23.0,16.0,-100.00,East,81,1.0,2.0,75,0.00,,,-99.99,0.000000,,2013-01-16 01:10:00,
2013-01-15 20:33:00,23.0,16.0,-100.00,East,81,1.0,2.0,75,0.00,,,-99.99,0.000000,,2013-01-16 01:33:00,
2013-01-15 20:43:00,23.0,16.0,-100.00,East,81,1.0,2.0,75,0.00,,,-99.99,0.000000,,2013-01-16 01:43:00,
2013-01-15 20:53:00,23.0,16.0,-100.00,East,81,1.0,2.0,75,0.00,,,-99.99,0.000000,,2013-01-16 01:53:00,
2013-01-15 21:03:00,23.0,16.0,-100.00,East,81,1.0,2.0,75,0.00,,,-99.99,0.000000,,2013-01-16 02:03:00,
2013-01-15 21:10:00,22.0,16.0,-100.00,South,176,0.0,2.0,79,0.00,,,0.00,0.000000,,2013-01-16 02:10:00,
2013-01-15 21:43:00,22.0,16.0,-100.00,South,176,0.0,2.0,79,0.00,,,0.00,0.000000,,2013-01-16 02:43:00,
2013-01-15 21:53:00,22.0,16.0,-100.00,South,176,0.0,2.0,79,0.00,,,0.00,0.000000,,2013-01-16 02:53:00,
2013-01-15 22:03:00,22.0,16.0,-100.00,South,176,0.0,2.0,79,0.00,,,0.00,0.000000,,2013-01-16 03:03:00,
2013-01-15 22:10:00,22.0,16.0,-100.00,ESE,112,0.0,2.0,79,0.00,,,0.00,0.000000,,2013-01-16 03:10:00,
2013-01-15 22:33:00,22.0,16.0,-100.00,ESE,112,0.0,2.0,79,0.00,,,0.00,0.000000,,2013-01-16 03:33:00,
2013-01-15 22:43:00,22.0,16.0,-100.00,ESE,112,0.0,2.0,79,0.00,,,0.00,0.000000,,2013-01-16 03:43:00,
2013-01-15 22:53:00,22.0,16.0,-100.00,ESE,112,0.0,2.0,79,0.00,,,0.00,0.000000,,2013-01-16 03:53:00,
2013-01-15 23:02:00,22.0,16.0,-100.00,ESE,112,0.0,2.0,79,0.00,,,0.00,0.000000,,2013-01-16 04:02:00,
2013-01-15 23:10:00,23.0,17.0,-100.00,NW,323,1.0,2.0,79,0.00,,,0.00,0.000000,,2013-01-16 04:10:00,
2013-01-15 23:33:00,23.0,17.0,-100.00,NW,323,1.0,2.0,79,0.00,,,0.00,0.000000,,2013-01-16 04:33:00,
2013-01-15 23:42:00,23.0,17.0,-100.00,NW,323,1.0,2.0,79,0.00,,,0.00,0.000000,,2013-01-16 04:42:00,
2013-01-15 23:53:00,23.0,17.0,-100.00,NW,323,1.0,2.0,79,0.00,,,0.00,0.000000,,2013-01-16 04:53:00,